createdAt,value
2022-12-23T00:01:58.528Z,14.30
2022-12-23T00:04:27.723Z,14.82
2022-12-23T00:06:56.691Z,17.60
2022-12-23T00:09:25.638Z,22.92
2022-12-23T00:12:13.243Z,16.70
2022-12-23T00:15:00.732Z,17.83
2022-12-23T00:17:29.730Z,16.90
2022-12-23T00:20:02.962Z,17.02
2022-12-23T00:23:00.504Z,16.52
2022-12-23T00:25:41.634Z,17.92
2022-12-23T00:28:13.354Z,17.85
2022-12-23T00:30:50.418Z,17.25
2022-12-23T00:33:24.876Z,18.65
2022-12-23T00:35:54.379Z,22.30
2022-12-23T00:38:47.902Z,18.88
2022-12-23T00:41:45.258Z,21.52
2022-12-23T00:44:14.293Z,23.55
2022-12-23T00:46:43.666Z,22.63
2022-12-23T00:49:32.531Z,27.80
2022-12-23T00:52:06.325Z,28.60
2022-12-23T00:54:35.627Z,31.98
2022-12-23T00:57:05.813Z,27.52
2022-12-23T00:59:34.839Z,26.02
2022-12-23T01:02:23.198Z,24.30
2022-12-23T01:08:17.133Z,22.85
2022-12-23T01:10:46.171Z,19.13
2022-12-23T01:13:15.433Z,18.95
2022-12-23T01:15:44.288Z,22.15
2022-12-23T01:18:13.668Z,20.90
2022-12-23T01:20:42.583Z,22.27
2022-12-23T01:23:17.579Z,23.17
2022-12-23T01:25:48.466Z,23.65
2022-12-23T01:28:21.951Z,25.48
2022-12-23T01:30:54.426Z,24.88
2022-12-23T01:33:23.489Z,27.75
2022-12-23T01:36:05.000Z,26.80
2022-12-23T01:38:34.610Z,25.45
2022-12-23T01:41:03.557Z,25.98
2022-12-23T01:43:51.621Z,23.88
2022-12-23T01:46:21.258Z,24.33
2022-12-23T01:48:52.248Z,22.10
2022-12-23T01:51:32.035Z,21.50
2022-12-23T01:54:04.020Z,21.33
2022-12-23T01:56:38.104Z,27.15
2022-12-23T01:59:08.734Z,25.30
2022-12-23T02:02:07.145Z,23.42
2022-12-23T02:04:36.300Z,22.75
2022-12-23T02:07:24.153Z,23.48
2022-12-23T02:09:52.981Z,20.95
2022-12-23T02:12:42.277Z,21.27
2022-12-23T02:15:45.452Z,20.70
2022-12-23T02:18:26.435Z,18.92
2022-12-23T02:21:11.848Z,16.52
2022-12-23T02:23:41.408Z,17.70
2022-12-23T02:26:32.827Z,15.55
2022-12-23T02:29:08.236Z,15.95
2022-12-23T02:31:45.712Z,16.55
2022-12-23T02:34:17.277Z,15.57
2022-12-23T02:36:58.537Z,14.75
2022-12-23T02:39:34.225Z,15.73
2022-12-23T02:42:16.001Z,15.10
2022-12-23T02:44:57.281Z,19.70
2022-12-23T02:50:00.752Z,29.30
2022-12-23T02:52:34.208Z,27.52
2022-12-23T02:55:09.992Z,26.30
2022-12-23T02:57:41.093Z,15.38
2022-12-23T03:00:10.328Z,20.27
2022-12-23T03:02:40.997Z,18.90
2022-12-23T03:05:28.792Z,17.30
2022-12-23T03:08:03.214Z,22.80
2022-12-23T03:10:35.637Z,16.02
2022-12-23T03:13:27.263Z,18.05
2022-12-23T03:16:05.519Z,24.58
2022-12-23T03:18:44.856Z,13.98
2022-12-23T03:21:33.479Z,13.32
2022-12-23T03:27:30.796Z,12.60
2022-12-23T03:30:05.864Z,12.15
2022-12-23T03:32:39.830Z,12.68
2022-12-23T03:35:10.263Z,13.55
2022-12-23T03:37:41.600Z,14.18
2022-12-23T03:40:14.978Z,31.27
2022-12-23T03:42:51.030Z,33.38
2022-12-23T03:45:38.751Z,24.55
2022-12-23T03:48:24.285Z,17.38
2022-12-23T03:51:00.828Z,23.75
2022-12-23T03:53:40.377Z,19.55
2022-12-23T03:56:14.079Z,14.97
2022-12-23T03:58:51.735Z,15.05
2022-12-23T04:01:32.885Z,15.40
2022-12-23T04:04:07.613Z,11.65
2022-12-23T04:09:43.346Z,10.43
2022-12-23T04:12:14.540Z,11.25
2022-12-23T04:14:47.906Z,15.48
2022-12-23T04:17:27.675Z,11.52
2022-12-23T04:20:01.400Z,12.00
2022-12-23T04:22:32.569Z,12.93
2022-12-23T04:25:06.299Z,11.50
2022-12-23T04:27:35.595Z,12.65
2022-12-23T04:30:05.186Z,11.40
2022-12-23T04:32:35.808Z,10.30
2022-12-23T04:35:05.092Z,10.68
2022-12-23T04:37:33.674Z,11.52
2022-12-23T04:40:02.938Z,9.82
2022-12-23T04:42:31.757Z,10.55
2022-12-23T04:45:00.711Z,13.18
2022-12-23T04:47:29.731Z,12.77
2022-12-23T04:49:58.532Z,19.30
2022-12-23T04:52:27.856Z,16.08
2022-12-23T04:54:58.821Z,14.98
2022-12-23T04:57:27.992Z,11.43
2022-12-23T04:59:57.505Z,14.00
2022-12-23T05:02:26.645Z,16.50
2022-12-23T05:04:55.594Z,12.68
2022-12-23T05:07:24.348Z,12.98
2022-12-23T05:10:03.209Z,12.15
2022-12-23T05:12:32.582Z,11.05
2022-12-23T05:15:01.830Z,10.73
2022-12-23T05:17:40.901Z,11.43
2022-12-23T05:20:10.125Z,13.57
2022-12-23T05:22:38.887Z,11.00
2022-12-23T05:25:18.122Z,11.80
2022-12-23T05:27:57.316Z,11.02
2022-12-23T05:30:26.076Z,10.57
2022-12-23T05:33:01.784Z,10.67
2022-12-23T05:35:30.815Z,9.45
2022-12-23T05:38:02.892Z,10.10
2022-12-23T05:40:38.354Z,10.85
2022-12-23T05:43:07.370Z,9.82
2022-12-23T05:45:42.580Z,10.02
2022-12-23T05:48:11.858Z,10.32
2022-12-23T05:50:49.907Z,10.05
2022-12-23T05:53:45.399Z,10.80
2022-12-23T05:56:14.605Z,9.55
2022-12-23T05:58:43.865Z,10.48
2022-12-23T06:01:13.958Z,8.63
2022-12-23T06:03:45.147Z,10.32
2022-12-23T06:06:14.304Z,9.02
2022-12-23T06:08:43.339Z,10.30
2022-12-23T06:11:15.530Z,9.25
2022-12-23T06:13:45.850Z,9.07
2022-12-23T06:16:15.608Z,9.80
2022-12-23T06:18:44.560Z,9.55
2022-12-23T06:21:13.349Z,9.82
2022-12-23T06:23:41.963Z,10.68
2022-12-23T06:26:11.002Z,8.63
2022-12-23T06:28:50.628Z,8.48
2022-12-23T06:31:20.533Z,9.15
2022-12-23T06:33:54.186Z,8.80
2022-12-23T06:36:22.938Z,10.05
2022-12-23T06:39:01.800Z,9.35
2022-12-23T06:41:41.041Z,8.35
2022-12-23T06:44:10.601Z,8.00
2022-12-23T06:46:39.222Z,9.52
2022-12-23T06:49:13.053Z,8.75
2022-12-23T06:51:47.183Z,9.52
2022-12-23T06:54:16.651Z,10.02
2022-12-23T06:56:45.584Z,8.88
2022-12-23T06:59:14.975Z,7.63
2022-12-23T07:01:44.511Z,8.85
2022-12-23T07:04:13.647Z,8.50
2022-12-23T07:06:43.208Z,8.80
2022-12-23T07:09:13.552Z,8.73
2022-12-23T07:11:53.049Z,34.65
2022-12-23T07:14:21.801Z,13.57
2022-12-23T07:17:01.009Z,9.40
2022-12-23T07:19:42.049Z,9.02
2022-12-23T07:22:11.828Z,8.48
2022-12-23T07:24:44.006Z,9.30
2022-12-23T07:27:18.309Z,9.65
2022-12-23T07:29:47.625Z,11.48
2022-12-23T07:32:17.070Z,10.65
2022-12-23T07:34:48.599Z,12.93
2022-12-23T07:37:18.026Z,9.05
2022-12-23T07:39:47.369Z,10.45
2022-12-23T07:42:43.503Z,9.18
2022-12-23T07:45:05.731Z,8.63
2022-12-23T07:47:34.454Z,9.32
2022-12-23T07:50:04.354Z,9.10
2022-12-23T07:52:33.631Z,10.13
2022-12-23T07:55:02.473Z,9.45
2022-12-23T07:57:38.009Z,9.98
2022-12-23T08:00:10.053Z,9.63
2022-12-23T08:02:43.096Z,9.30
2022-12-23T08:05:12.993Z,10.15
2022-12-23T08:07:45.444Z,9.10
2022-12-23T08:10:14.831Z,9.93
2022-12-23T08:12:44.073Z,10.48
2022-12-23T08:15:13.590Z,10.05
2022-12-23T08:17:52.232Z,9.82
2022-12-23T08:20:21.967Z,8.50
2022-12-23T08:23:00.713Z,9.70
2022-12-23T08:25:36.208Z,9.65
2022-12-23T08:28:15.556Z,9.45
2022-12-23T08:30:44.634Z,9.18
2022-12-23T08:33:14.574Z,9.20
2022-12-23T08:35:55.151Z,8.52
2022-12-23T08:38:24.898Z,8.57
2022-12-23T08:40:54.319Z,8.52
2022-12-23T08:43:23.229Z,8.40
2022-12-23T08:45:52.606Z,9.77
2022-12-23T08:48:32.207Z,9.70
2022-12-23T08:51:07.900Z,8.18
2022-12-23T08:53:37.643Z,8.52
2022-12-23T08:56:17.819Z,8.82
2022-12-23T08:58:51.485Z,11.10
2022-12-23T09:01:23.356Z,12.65
2022-12-23T09:03:52.867Z,10.95
2022-12-23T09:06:29.070Z,10.68
2022-12-23T09:09:00.152Z,10.18
2022-12-23T09:11:30.270Z,10.32
2022-12-23T09:14:00.632Z,9.70
2022-12-23T09:16:30.203Z,9.85
2022-12-23T09:19:00.782Z,11.20
2022-12-23T09:21:30.597Z,13.48
2022-12-23T09:23:59.363Z,12.05
2022-12-23T09:26:29.929Z,11.00
2022-12-23T09:28:59.271Z,12.23
2022-12-23T09:31:36.187Z,11.60
2022-12-23T09:34:06.753Z,13.23
2022-12-23T09:36:37.158Z,10.85
2022-12-23T09:39:11.051Z,20.55
2022-12-23T09:41:46.796Z,22.25
2022-12-23T09:47:32.104Z,22.75
2022-12-23T09:50:03.324Z,11.00
2022-12-23T09:53:04.790Z,10.77
2022-12-23T09:55:34.496Z,11.00
2022-12-23T09:58:07.478Z,11.38
2022-12-23T10:00:45.421Z,35.25
2022-12-23T10:03:26.831Z,16.73
2022-12-23T10:06:16.774Z,11.10
2022-12-23T10:08:47.893Z,11.15
2022-12-23T10:11:29.301Z,10.20
2022-12-23T10:14:16.843Z,12.00
2022-12-23T10:16:47.604Z,14.13
2022-12-23T10:19:32.538Z,13.98
2022-12-23T10:22:01.868Z,21.45
2022-12-23T10:24:36.930Z,13.43
2022-12-23T10:27:39.505Z,11.07
2022-12-23T10:30:34.166Z,11.85
2022-12-23T10:33:09.740Z,12.40
2022-12-23T10:35:58.318Z,12.35
2022-12-23T10:41:22.171Z,11.60
2022-12-23T10:44:18.051Z,11.50
2022-12-23T10:46:51.283Z,14.57
2022-12-23T10:49:42.072Z,13.50
2022-12-23T10:52:19.175Z,13.30
2022-12-23T10:54:49.818Z,20.90
2022-12-23T10:57:19.767Z,14.18
2022-12-23T10:59:48.930Z,14.90
2022-12-23T11:02:22.981Z,13.18
2022-12-23T11:04:52.552Z,13.15
2022-12-23T11:10:17.504Z,62.03
2022-12-23T11:12:48.665Z,28.38
2022-12-23T11:15:28.780Z,14.63
2022-12-23T11:18:07.775Z,14.63
2022-12-23T11:21:02.378Z,13.75
2022-12-23T11:23:33.617Z,14.75
2022-12-23T11:26:04.215Z,13.70
2022-12-23T11:28:34.728Z,14.07
2022-12-23T11:31:08.959Z,14.50
2022-12-23T11:34:01.844Z,13.00
2022-12-23T11:36:31.651Z,12.30
2022-12-23T11:39:12.911Z,13.70
2022-12-23T11:41:50.129Z,12.70
2022-12-23T11:44:38.689Z,14.82
2022-12-23T11:47:20.170Z,17.95
2022-12-23T11:49:51.539Z,15.90
2022-12-23T11:52:21.623Z,16.92
2022-12-23T11:55:01.701Z,23.30
2022-12-23T11:57:34.681Z,18.85
2022-12-23T12:00:06.181Z,18.73
2022-12-23T12:02:35.232Z,13.30
2022-12-23T12:05:18.834Z,13.02
2022-12-23T12:07:48.850Z,12.45
2022-12-23T12:10:27.201Z,11.75
2022-12-23T12:12:57.384Z,11.00
2022-12-23T12:15:33.192Z,13.00
2022-12-23T12:18:07.324Z,12.27
2022-12-23T12:21:09.702Z,11.15
2022-12-23T12:23:42.053Z,10.90
2022-12-23T12:26:27.981Z,10.10
2022-12-23T12:29:15.490Z,9.45
2022-12-23T12:31:46.518Z,9.23
2022-12-23T12:34:24.890Z,8.77
2022-12-23T12:37:00.910Z,9.43
2022-12-23T12:39:36.589Z,9.02
2022-12-23T12:42:16.859Z,10.30
2022-12-23T12:45:04.871Z,10.52
2022-12-23T12:48:05.982Z,10.05
2022-12-23T12:50:40.444Z,9.32
2022-12-23T12:53:20.467Z,8.65
2022-12-23T12:56:22.284Z,8.75
2022-12-23T12:58:51.357Z,9.43
2022-12-23T13:01:26.555Z,25.25
2022-12-23T13:04:06.446Z,13.38
2022-12-23T13:07:02.530Z,8.70
2022-12-23T13:10:00.754Z,8.45
2022-12-23T13:12:57.059Z,9.02
2022-12-23T13:15:25.764Z,9.30
2022-12-23T13:18:19.727Z,11.52
2022-12-23T13:20:59.875Z,8.80
2022-12-23T13:23:44.633Z,8.82
2022-12-23T13:26:32.464Z,10.20
2022-12-23T13:29:25.440Z,8.85
2022-12-23T13:32:04.619Z,9.02
2022-12-23T13:37:48.821Z,8.75
2022-12-23T13:40:24.872Z,9.35
2022-12-23T13:42:56.361Z,11.35
2022-12-23T13:45:29.583Z,9.60
2022-12-23T13:48:09.985Z,10.25
2022-12-23T13:53:47.895Z,9.75
2022-12-23T13:56:24.704Z,9.23
2022-12-23T13:59:00.137Z,8.50
2022-12-23T14:01:42.053Z,9.60
2022-12-23T14:04:31.484Z,9.95
2022-12-23T14:07:07.884Z,20.15
2022-12-23T14:09:38.931Z,20.88
2022-12-23T14:12:40.944Z,30.98
2022-12-23T14:15:21.285Z,45.42
2022-12-23T14:18:04.857Z,13.77
2022-12-23T14:21:02.586Z,15.43
2022-12-23T14:24:00.877Z,19.70
2022-12-23T14:26:51.278Z,32.05
2022-12-23T14:32:05.433Z,24.48
2022-12-23T14:34:34.592Z,33.47
2022-12-23T14:37:17.189Z,35.65
2022-12-23T14:39:50.866Z,20.70
2022-12-23T14:42:36.785Z,39.33
2022-12-23T14:45:28.446Z,14.07
2022-12-23T14:47:57.471Z,43.10
2022-12-23T14:50:36.674Z,19.30
2022-12-23T14:53:25.578Z,21.10
2022-12-23T14:56:11.540Z,13.13
2022-12-23T14:58:40.289Z,14.07
2022-12-23T15:01:15.734Z,17.55
2022-12-23T15:04:01.375Z,13.45
2022-12-23T15:06:38.728Z,12.35
2022-12-23T15:09:24.241Z,10.60
2022-12-23T15:11:55.298Z,10.95
2022-12-23T15:14:36.377Z,9.93
2022-12-23T15:20:28.741Z,11.88
2022-12-23T15:23:01.450Z,12.30
2022-12-23T15:25:35.356Z,23.38
2022-12-23T15:28:04.484Z,20.02
2022-12-23T15:30:37.140Z,13.93
2022-12-23T15:33:21.852Z,17.35
2022-12-23T15:35:57.957Z,14.30
2022-12-23T15:38:28.569Z,12.27
2022-12-23T15:41:14.771Z,31.50
2022-12-23T15:43:44.064Z,16.42
2022-12-23T15:46:26.952Z,13.80
2022-12-23T15:48:58.640Z,14.57
2022-12-23T15:52:06.412Z,25.27
2022-12-23T15:54:40.707Z,10.95
2022-12-23T15:57:14.445Z,12.50
2022-12-23T15:59:54.181Z,11.85
2022-12-23T16:02:59.734Z,10.65
2022-12-23T16:05:29.202Z,8.68
2022-12-23T16:08:24.624Z,8.40
2022-12-23T16:11:01.554Z,7.70
2022-12-23T16:13:46.759Z,8.35
2022-12-23T16:16:31.749Z,9.00
2022-12-23T16:19:01.302Z,13.70
2022-12-23T16:21:33.168Z,15.25
2022-12-23T16:24:03.605Z,11.93
2022-12-23T16:26:39.854Z,9.77
2022-12-23T16:29:18.349Z,7.93
2022-12-23T16:31:52.277Z,7.95
2022-12-23T16:34:26.711Z,7.80
2022-12-23T16:36:56.517Z,8.68
2022-12-23T16:39:25.569Z,8.30
2022-12-23T16:41:55.009Z,7.28
2022-12-23T16:44:27.260Z,8.27
2022-12-23T16:46:56.507Z,8.75
2022-12-23T16:49:36.356Z,7.40
2022-12-23T16:52:07.582Z,6.95
2022-12-23T16:54:36.781Z,6.82
2022-12-23T16:57:05.772Z,6.88
2022-12-23T16:59:41.518Z,7.55
2022-12-23T17:02:22.946Z,7.78
2022-12-23T17:04:52.564Z,7.47
2022-12-23T17:07:26.980Z,7.32
2022-12-23T17:09:56.260Z,8.25
2022-12-23T17:12:25.111Z,8.40
2022-12-23T17:14:59.135Z,8.38
2022-12-23T17:17:30.530Z,7.73
2022-12-23T17:19:59.918Z,6.53
2022-12-23T17:22:29.250Z,7.85
2022-12-23T17:25:13.091Z,7.72
2022-12-23T17:27:42.199Z,7.57
2022-12-23T17:30:15.244Z,6.78
2022-12-23T17:32:51.508Z,7.15
2022-12-23T17:35:22.855Z,6.90
2022-12-23T17:37:53.874Z,7.13
2022-12-23T17:40:23.091Z,7.18
2022-12-23T17:42:51.975Z,8.05
2022-12-23T17:45:32.194Z,7.93
2022-12-23T17:48:01.221Z,7.10
2022-12-23T17:50:30.292Z,7.75
2022-12-23T17:53:13.748Z,7.53
2022-12-23T17:55:47.358Z,7.30
2022-12-23T17:58:24.417Z,7.70
2022-12-23T18:01:03.558Z,7.63
2022-12-23T18:03:32.774Z,6.90
2022-12-23T18:06:02.398Z,6.38
2022-12-23T18:08:31.315Z,7.10
2022-12-23T18:11:00.105Z,7.05
2022-12-23T18:13:29.458Z,7.00
2022-12-23T18:16:03.590Z,7.03
2022-12-23T18:18:41.948Z,6.82
2022-12-23T18:21:18.092Z,7.40
2022-12-23T18:23:47.656Z,7.55
2022-12-23T18:26:23.377Z,7.60
2022-12-23T18:28:54.660Z,7.03
2022-12-23T18:31:24.855Z,6.72
2022-12-23T18:33:55.072Z,6.35
2022-12-23T18:36:27.868Z,7.25
2022-12-23T18:38:57.668Z,7.70
2022-12-23T18:41:27.640Z,7.22
2022-12-23T18:43:56.469Z,7.00
2022-12-23T18:46:25.396Z,8.15
2022-12-23T18:49:03.762Z,7.50
2022-12-23T18:51:33.149Z,7.38
2022-12-23T18:54:02.101Z,7.95
2022-12-23T18:56:31.341Z,7.00
2022-12-23T18:59:00.665Z,7.40
2022-12-23T19:01:29.735Z,7.60
2022-12-23T19:03:58.760Z,8.30
2022-12-23T19:06:38.420Z,8.45
2022-12-23T19:09:07.829Z,8.23
2022-12-23T19:11:36.344Z,7.10
2022-12-23T19:14:06.334Z,8.13
2022-12-23T19:16:36.370Z,8.05
2022-12-23T19:19:05.129Z,7.15
2022-12-23T19:21:34.128Z,8.00
2022-12-23T19:24:03.556Z,7.95
2022-12-23T19:26:32.449Z,7.53
2022-12-23T19:29:01.415Z,7.38
2022-12-23T19:31:31.221Z,8.25
2022-12-23T19:34:08.264Z,6.88
2022-12-23T19:36:41.617Z,8.38
2022-12-23T19:39:17.159Z,8.98
2022-12-23T19:41:48.411Z,9.07
2022-12-23T19:44:17.879Z,8.85
2022-12-23T19:46:46.474Z,8.30
2022-12-23T19:49:19.937Z,9.15
2022-12-23T19:51:49.591Z,8.50
2022-12-23T19:54:19.145Z,9.25
2022-12-23T19:56:50.321Z,8.30
2022-12-23T19:59:29.638Z,8.10
2022-12-23T20:01:58.463Z,9.35
2022-12-23T20:04:38.301Z,8.05
2022-12-23T20:07:12.437Z,9.57
2022-12-23T20:09:41.562Z,9.07
2022-12-23T20:12:10.608Z,9.10
2022-12-23T20:14:39.337Z,8.43
2022-12-23T20:17:13.456Z,8.82
2022-12-23T20:19:47.518Z,9.68
2022-12-23T20:22:21.204Z,8.95
2022-12-23T20:25:01.027Z,9.35
2022-12-23T20:27:32.897Z,8.25
2022-12-23T20:30:01.797Z,9.23
2022-12-23T20:32:37.541Z,8.63
2022-12-23T20:35:09.494Z,8.57
2022-12-23T20:37:38.561Z,8.88
2022-12-23T20:40:07.839Z,8.60
2022-12-23T20:42:36.935Z,8.90
2022-12-23T20:45:10.973Z,8.75
2022-12-23T20:47:40.484Z,8.45
2022-12-23T20:50:15.125Z,8.13
2022-12-23T20:52:43.840Z,8.55
2022-12-23T20:55:23.593Z,8.25
2022-12-23T20:57:52.499Z,9.45
2022-12-23T21:00:31.679Z,9.07
2022-12-23T21:03:05.284Z,8.65
2022-12-23T21:05:42.384Z,8.38
2022-12-23T21:08:17.290Z,9.60
2022-12-23T21:10:52.347Z,8.53
2022-12-23T21:13:26.970Z,9.35
2022-12-23T21:16:03.805Z,8.55
2022-12-23T21:18:33.087Z,9.63
2022-12-23T21:21:03.334Z,10.23
2022-12-23T21:23:38.802Z,9.23
2022-12-23T21:26:07.951Z,9.48
2022-12-23T21:28:43.960Z,9.82
2022-12-23T21:31:24.108Z,9.70
2022-12-23T21:34:01.050Z,9.45
2022-12-23T21:36:32.096Z,10.02
2022-12-23T21:39:02.732Z,9.45
2022-12-23T21:41:35.012Z,9.73
2022-12-23T21:44:15.174Z,10.27
2022-12-23T21:46:44.470Z,10.32
2022-12-23T21:49:17.923Z,8.75
2022-12-23T21:51:47.150Z,9.73
2022-12-23T21:54:16.015Z,9.93
2022-12-23T21:56:46.836Z,10.15
2022-12-23T21:59:16.505Z,10.05
2022-12-23T22:01:51.394Z,9.32
2022-12-23T22:04:20.694Z,10.25
2022-12-23T22:06:50.207Z,10.07
2022-12-23T22:09:20.052Z,10.07
2022-12-23T22:11:48.910Z,10.02
2022-12-23T22:14:18.935Z,10.20
2022-12-23T22:16:48.556Z,10.55
2022-12-23T22:19:19.018Z,10.38
2022-12-23T22:21:48.149Z,10.65
2022-12-23T22:24:17.028Z,10.35
2022-12-23T22:26:51.578Z,10.85
2022-12-23T22:29:20.512Z,11.40
2022-12-23T22:31:50.555Z,10.48
2022-12-23T22:34:21.722Z,10.88
2022-12-23T22:36:50.474Z,11.27
2022-12-23T22:39:21.661Z,10.55
2022-12-23T22:41:51.350Z,11.25
2022-12-23T22:44:20.780Z,10.98
2022-12-23T22:46:49.606Z,11.40
2022-12-23T22:49:18.878Z,10.63
2022-12-23T22:51:48.647Z,10.05
2022-12-23T22:54:17.331Z,10.88
2022-12-23T22:56:48.900Z,10.35
2022-12-23T22:59:24.571Z,10.90
2022-12-23T23:01:53.963Z,10.80
2022-12-23T23:04:23.198Z,9.95
2022-12-23T23:07:02.257Z,9.88
2022-12-23T23:09:31.188Z,11.68
2022-12-23T23:12:05.165Z,11.07
2022-12-23T23:14:52.788Z,10.77
2022-12-23T23:17:27.925Z,11.40
2022-12-23T23:19:57.167Z,11.07
2022-12-23T23:22:25.957Z,11.88
2022-12-23T23:24:55.176Z,11.23
2022-12-23T23:27:29.048Z,11.38
2022-12-23T23:29:57.751Z,10.07
2022-12-23T23:32:37.622Z,10.77
2022-12-23T23:35:11.256Z,12.20
2022-12-23T23:37:51.249Z,11.70
2022-12-23T23:40:20.689Z,9.90
2022-12-23T23:42:49.732Z,10.87
2022-12-23T23:45:23.370Z,10.65
2022-12-23T23:47:52.351Z,11.35
2022-12-23T23:50:26.615Z,10.98
2022-12-23T23:53:06.667Z,11.27
2022-12-23T23:55:35.564Z,11.02
2022-12-23T23:58:05.312Z,11.18
